sensor_id;sensor_type;location;lat;lon;timestamp;P1;durP1;ratioP1;P2;durP2;ratioP2
31206;SDS011;17834;52.992;8.856;2024-01-30T00:00:39;24.35;;;10.68;;
31206;SDS011;17834;52.992;8.856;2024-01-30T00:03:04;20.67;;;10.85;;
31206;SDS011;17834;52.992;8.856;2024-01-30T00:05:30;21.13;;;10.27;;
31206;SDS011;17834;52.992;8.856;2024-01-30T00:07:55;17.83;;;10.13;;
31206;SDS011;17834;52.992;8.856;2024-01-30T00:10:21;17.15;;;9.35;;
31206;SDS011;17834;52.992;8.856;2024-01-30T00:12:47;16.63;;;9.50;;
31206;SDS011;17834;52.992;8.856;2024-01-30T00:15:12;17.88;;;10.05;;
31206;SDS011;17834;52.992;8.856;2024-01-30T00:17:38;19.92;;;10.80;;
31206;SDS011;17834;52.992;8.856;2024-01-30T00:20:03;18.58;;;9.85;;
31206;SDS011;17834;52.992;8.856;2024-01-30T00:22:34;16.30;;;9.15;;
31206;SDS011;17834;52.992;8.856;2024-01-30T00:24:59;23.95;;;12.88;;
31206;SDS011;17834;52.992;8.856;2024-01-30T00:27:25;19.85;;;10.48;;
31206;SDS011;17834;52.992;8.856;2024-01-30T00:29:51;20.48;;;10.98;;
31206;SDS011;17834;52.992;8.856;2024-01-30T00:32:17;18.38;;;9.68;;
31206;SDS011;17834;52.992;8.856;2024-01-30T00:34:44;22.60;;;12.18;;
31206;SDS011;17834;52.992;8.856;2024-01-30T00:37:09;21.98;;;12.32;;
31206;SDS011;17834;52.992;8.856;2024-01-30T00:39:35;20.30;;;11.15;;
31206;SDS011;17834;52.992;8.856;2024-01-30T00:42:01;18.08;;;9.93;;
31206;SDS011;17834;52.992;8.856;2024-01-30T00:44:26;24.35;;;11.48;;
31206;SDS011;17834;52.992;8.856;2024-01-30T00:46:52;17.90;;;9.82;;
31206;SDS011;17834;52.992;8.856;2024-01-30T00:49:17;21.05;;;10.27;;
31206;SDS011;17834;52.992;8.856;2024-01-30T00:51:43;19.48;;;10.50;;
31206;SDS011;17834;52.992;8.856;2024-01-30T00:54:08;21.90;;;10.40;;
31206;SDS011;17834;52.992;8.856;2024-01-30T00:56:34;20.17;;;10.77;;
31206;SDS011;17834;52.992;8.856;2024-01-30T00:58:59;22.20;;;10.05;;
31206;SDS011;17834;52.992;8.856;2024-01-30T01:01:25;18.00;;;9.88;;
31206;SDS011;17834;52.992;8.856;2024-01-30T01:03:50;18.40;;;10.07;;
31206;SDS011;17834;52.992;8.856;2024-01-30T01:06:16;17.17;;;10.35;;
31206;SDS011;17834;52.992;8.856;2024-01-30T01:08:41;18.85;;;10.20;;
31206;SDS011;17834;52.992;8.856;2024-01-30T01:11:07;17.50;;;8.85;;
31206;SDS011;17834;52.992;8.856;2024-01-30T01:13:32;19.80;;;9.57;;
31206;SDS011;17834;52.992;8.856;2024-01-30T01:15:58;17.75;;;9.90;;
31206;SDS011;17834;52.992;8.856;2024-01-30T01:18:23;15.38;;;9.40;;
31206;SDS011;17834;52.992;8.856;2024-01-30T01:20:49;18.02;;;9.25;;
31206;SDS011;17834;52.992;8.856;2024-01-30T01:23:14;20.08;;;10.35;;
31206;SDS011;17834;52.992;8.856;2024-01-30T01:25:40;18.80;;;9.60;;
31206;SDS011;17834;52.992;8.856;2024-01-30T01:28:05;20.80;;;9.70;;
31206;SDS011;17834;52.992;8.856;2024-01-30T01:30:31;18.40;;;9.80;;
31206;SDS011;17834;52.992;8.856;2024-01-30T01:32:56;15.88;;;9.63;;
31206;SDS011;17834;52.992;8.856;2024-01-30T01:35:25;17.73;;;9.68;;
31206;SDS011;17834;52.992;8.856;2024-01-30T01:37:51;17.75;;;9.82;;
31206;SDS011;17834;52.992;8.856;2024-01-30T01:40:22;20.30;;;9.82;;
31206;SDS011;17834;52.992;8.856;2024-01-30T01:42:49;17.70;;;9.90;;
31206;SDS011;17834;52.992;8.856;2024-01-30T01:45:16;18.30;;;10.20;;
31206;SDS011;17834;52.992;8.856;2024-01-30T01:47:41;23.58;;;10.35;;
31206;SDS011;17834;52.992;8.856;2024-01-30T01:50:08;20.15;;;10.20;;
31206;SDS011;17834;52.992;8.856;2024-01-30T01:52:33;19.83;;;10.15;;
31206;SDS011;17834;52.992;8.856;2024-01-30T01:54:59;17.25;;;9.50;;
31206;SDS011;17834;52.992;8.856;2024-01-30T01:57:25;19.13;;;9.60;;
31206;SDS011;17834;52.992;8.856;2024-01-30T01:59:50;19.33;;;10.70;;
31206;SDS011;17834;52.992;8.856;2024-01-30T02:02:17;17.75;;;9.98;;
31206;SDS011;17834;52.992;8.856;2024-01-30T02:04:44;20.52;;;10.63;;
31206;SDS011;17834;52.992;8.856;2024-01-30T02:07:10;19.13;;;8.82;;
31206;SDS011;17834;52.992;8.856;2024-01-30T02:09:36;18.48;;;10.00;;
31206;SDS011;17834;52.992;8.856;2024-01-30T02:12:01;18.42;;;9.85;;
31206;SDS011;17834;52.992;8.856;2024-01-30T02:14:27;18.02;;;9.50;;
31206;SDS011;17834;52.992;8.856;2024-01-30T02:16:52;19.90;;;9.93;;
31206;SDS011;17834;52.992;8.856;2024-01-30T02:19:18;19.65;;;10.43;;
31206;SDS011;17834;52.992;8.856;2024-01-30T02:21:44;18.77;;;9.95;;
31206;SDS011;17834;52.992;8.856;2024-01-30T02:24:11;20.73;;;10.65;;
31206;SDS011;17834;52.992;8.856;2024-01-30T02:26:36;19.63;;;9.40;;
31206;SDS011;17834;52.992;8.856;2024-01-30T02:29:02;17.65;;;10.50;;
31206;SDS011;17834;52.992;8.856;2024-01-30T02:31:27;20.00;;;10.40;;
31206;SDS011;17834;52.992;8.856;2024-01-30T02:33:53;18.67;;;9.30;;
31206;SDS011;17834;52.992;8.856;2024-01-30T02:36:18;19.48;;;9.57;;
31206;SDS011;17834;52.992;8.856;2024-01-30T02:38:44;17.92;;;10.27;;
31206;SDS011;17834;52.992;8.856;2024-01-30T02:41:11;21.42;;;10.07;;
31206;SDS011;17834;52.992;8.856;2024-01-30T02:43:36;20.55;;;11.35;;
31206;SDS011;17834;52.992;8.856;2024-01-30T02:46:02;18.98;;;9.57;;
31206;SDS011;17834;52.992;8.856;2024-01-30T02:48:27;22.83;;;11.40;;
31206;SDS011;17834;52.992;8.856;2024-01-30T02:50:53;23.50;;;11.00;;
31206;SDS011;17834;52.992;8.856;2024-01-30T02:53:18;17.05;;;9.63;;
31206;SDS011;17834;52.992;8.856;2024-01-30T02:55:44;20.40;;;11.27;;
31206;SDS011;17834;52.992;8.856;2024-01-30T02:58:09;18.63;;;10.18;;
31206;SDS011;17834;52.992;8.856;2024-01-30T03:00:35;17.45;;;10.35;;
31206;SDS011;17834;52.992;8.856;2024-01-30T03:03:00;21.00;;;10.93;;
31206;SDS011;17834;52.992;8.856;2024-01-30T03:05:26;20.77;;;10.30;;
31206;SDS011;17834;52.992;8.856;2024-01-30T03:07:52;18.77;;;9.48;;
31206;SDS011;17834;52.992;8.856;2024-01-30T03:10:17;20.55;;;10.45;;
31206;SDS011;17834;52.992;8.856;2024-01-30T03:12:43;20.25;;;10.70;;
31206;SDS011;17834;52.992;8.856;2024-01-30T03:15:09;19.48;;;11.02;;
31206;SDS011;17834;52.992;8.856;2024-01-30T03:17:34;24.60;;;11.25;;
31206;SDS011;17834;52.992;8.856;2024-01-30T03:20:01;18.30;;;10.20;;
31206;SDS011;17834;52.992;8.856;2024-01-30T03:22:28;20.98;;;10.77;;
31206;SDS011;17834;52.992;8.856;2024-01-30T03:24:54;16.35;;;10.18;;
31206;SDS011;17834;52.992;8.856;2024-01-30T03:27:19;22.23;;;10.45;;
31206;SDS011;17834;52.992;8.856;2024-01-30T03:29:45;18.67;;;9.48;;
31206;SDS011;17834;52.992;8.856;2024-01-30T03:32:10;20.23;;;9.80;;
31206;SDS011;17834;52.992;8.856;2024-01-30T03:34:36;20.55;;;11.18;;
31206;SDS011;17834;52.992;8.856;2024-01-30T03:37:01;22.25;;;11.25;;
31206;SDS011;17834;52.992;8.856;2024-01-30T03:39:27;17.42;;;10.50;;
31206;SDS011;17834;52.992;8.856;2024-01-30T03:41:52;23.13;;;12.05;;
31206;SDS011;17834;52.992;8.856;2024-01-30T03:44:18;19.98;;;10.70;;
31206;SDS011;17834;52.992;8.856;2024-01-30T03:46:43;20.60;;;11.43;;
31206;SDS011;17834;52.992;8.856;2024-01-30T03:49:09;18.85;;;10.02;;
31206;SDS011;17834;52.992;8.856;2024-01-30T03:51:35;20.85;;;9.77;;
31206;SDS011;17834;52.992;8.856;2024-01-30T03:54:00;17.08;;;9.73;;
31206;SDS011;17834;52.992;8.856;2024-01-30T03:56:26;19.52;;;9.43;;
31206;SDS011;17834;52.992;8.856;2024-01-30T03:58:51;24.90;;;11.05;;
31206;SDS011;17834;52.992;8.856;2024-01-30T04:01:17;20.95;;;9.75;;
31206;SDS011;17834;52.992;8.856;2024-01-30T04:03:42;17.15;;;10.25;;
31206;SDS011;17834;52.992;8.856;2024-01-30T04:06:08;20.50;;;10.02;;
31206;SDS011;17834;52.992;8.856;2024-01-30T04:08:34;20.77;;;11.35;;
31206;SDS011;17834;52.992;8.856;2024-01-30T04:11:06;20.73;;;11.40;;
31206;SDS011;17834;52.992;8.856;2024-01-30T04:13:32;19.67;;;11.32;;
31206;SDS011;17834;52.992;8.856;2024-01-30T04:15:59;18.25;;;10.38;;
31206;SDS011;17834;52.992;8.856;2024-01-30T04:18:26;19.20;;;11.20;;
31206;SDS011;17834;52.992;8.856;2024-01-30T04:20:52;21.67;;;11.57;;
31206;SDS011;17834;52.992;8.856;2024-01-30T04:23:17;22.63;;;11.05;;
31206;SDS011;17834;52.992;8.856;2024-01-30T04:25:43;21.65;;;11.02;;
31206;SDS011;17834;52.992;8.856;2024-01-30T04:28:09;23.58;;;11.68;;
31206;SDS011;17834;52.992;8.856;2024-01-30T04:30:37;22.80;;;12.13;;
31206;SDS011;17834;52.992;8.856;2024-01-30T04:33:02;22.45;;;11.95;;
31206;SDS011;17834;52.992;8.856;2024-01-30T04:35:28;24.13;;;11.35;;
31206;SDS011;17834;52.992;8.856;2024-01-30T04:37:54;26.35;;;12.52;;
31206;SDS011;17834;52.992;8.856;2024-01-30T04:40:20;22.67;;;11.95;;
31206;SDS011;17834;52.992;8.856;2024-01-30T04:42:46;24.40;;;11.57;;
31206;SDS011;17834;52.992;8.856;2024-01-30T04:45:12;22.23;;;11.65;;
31206;SDS011;17834;52.992;8.856;2024-01-30T04:47:37;25.58;;;13.35;;
31206;SDS011;17834;52.992;8.856;2024-01-30T04:50:04;24.20;;;12.05;;
31206;SDS011;17834;52.992;8.856;2024-01-30T04:52:31;23.70;;;12.05;;
31206;SDS011;17834;52.992;8.856;2024-01-30T04:54:56;25.15;;;12.65;;
31206;SDS011;17834;52.992;8.856;2024-01-30T04:57:22;27.02;;;11.25;;
31206;SDS011;17834;52.992;8.856;2024-01-30T04:59:47;21.48;;;11.75;;
31206;SDS011;17834;52.992;8.856;2024-01-30T05:02:13;22.20;;;11.32;;
31206;SDS011;17834;52.992;8.856;2024-01-30T05:04:40;21.15;;;11.02;;
31206;SDS011;17834;52.992;8.856;2024-01-30T05:07:06;21.38;;;11.52;;
31206;SDS011;17834;52.992;8.856;2024-01-30T05:09:31;19.25;;;11.07;;
31206;SDS011;17834;52.992;8.856;2024-01-30T05:11:57;21.75;;;10.52;;
31206;SDS011;17834;52.992;8.856;2024-01-30T05:14:23;17.60;;;9.82;;
31206;SDS011;17834;52.992;8.856;2024-01-30T05:16:48;22.52;;;11.13;;
31206;SDS011;17834;52.992;8.856;2024-01-30T05:19:14;25.15;;;12.15;;
31206;SDS011;17834;52.992;8.856;2024-01-30T05:21:39;23.45;;;11.15;;
31206;SDS011;17834;52.992;8.856;2024-01-30T05:24:06;21.73;;;11.80;;
31206;SDS011;17834;52.992;8.856;2024-01-30T05:26:31;22.85;;;11.45;;
31206;SDS011;17834;52.992;8.856;2024-01-30T05:28:57;22.17;;;12.00;;
31206;SDS011;17834;52.992;8.856;2024-01-30T05:31:23;24.08;;;12.55;;
31206;SDS011;17834;52.992;8.856;2024-01-30T05:33:48;24.23;;;12.75;;
31206;SDS011;17834;52.992;8.856;2024-01-30T05:36:14;22.27;;;12.38;;
31206;SDS011;17834;52.992;8.856;2024-01-30T05:38:39;22.77;;;12.50;;
31206;SDS011;17834;52.992;8.856;2024-01-30T05:41:05;24.60;;;12.35;;
31206;SDS011;17834;52.992;8.856;2024-01-30T05:43:30;21.55;;;12.38;;
31206;SDS011;17834;52.992;8.856;2024-01-30T05:45:56;22.80;;;12.40;;
31206;SDS011;17834;52.992;8.856;2024-01-30T05:48:21;21.90;;;11.80;;
31206;SDS011;17834;52.992;8.856;2024-01-30T05:50:47;24.05;;;11.65;;
31206;SDS011;17834;52.992;8.856;2024-01-30T05:53:12;25.75;;;12.38;;
31206;SDS011;17834;52.992;8.856;2024-01-30T05:55:38;25.42;;;12.40;;
31206;SDS011;17834;52.992;8.856;2024-01-30T05:58:03;27.08;;;12.90;;
31206;SDS011;17834;52.992;8.856;2024-01-30T06:00:29;26.90;;;13.27;;
31206;SDS011;17834;52.992;8.856;2024-01-30T06:02:55;30.70;;;13.93;;
31206;SDS011;17834;52.992;8.856;2024-01-30T06:05:20;25.80;;;13.73;;
31206;SDS011;17834;52.992;8.856;2024-01-30T06:07:46;24.48;;;13.75;;
31206;SDS011;17834;52.992;8.856;2024-01-30T06:10:11;24.52;;;13.02;;
31206;SDS011;17834;52.992;8.856;2024-01-30T06:12:37;28.50;;;13.35;;
31206;SDS011;17834;52.992;8.856;2024-01-30T06:15:03;25.80;;;12.73;;
31206;SDS011;17834;52.992;8.856;2024-01-30T06:17:29;26.33;;;13.20;;
31206;SDS011;17834;52.992;8.856;2024-01-30T06:19:55;24.20;;;11.98;;
31206;SDS011;17834;52.992;8.856;2024-01-30T06:22:20;25.70;;;13.23;;
31206;SDS011;17834;52.992;8.856;2024-01-30T06:24:46;28.33;;;13.45;;
31206;SDS011;17834;52.992;8.856;2024-01-30T06:27:13;30.70;;;13.02;;
31206;SDS011;17834;52.992;8.856;2024-01-30T06:29:40;24.95;;;13.48;;
31206;SDS011;17834;52.992;8.856;2024-01-30T06:32:05;26.27;;;12.60;;
31206;SDS011;17834;52.992;8.856;2024-01-30T06:34:31;25.50;;;12.48;;
31206;SDS011;17834;52.992;8.856;2024-01-30T06:36:57;25.20;;;12.88;;
31206;SDS011;17834;52.992;8.856;2024-01-30T06:39:22;27.48;;;12.95;;
31206;SDS011;17834;52.992;8.856;2024-01-30T06:41:48;28.15;;;14.27;;
31206;SDS011;17834;52.992;8.856;2024-01-30T06:44:14;26.45;;;13.13;;
31206;SDS011;17834;52.992;8.856;2024-01-30T06:46:39;27.83;;;14.32;;
31206;SDS011;17834;52.992;8.856;2024-01-30T06:49:05;27.10;;;13.77;;
31206;SDS011;17834;52.992;8.856;2024-01-30T06:51:30;23.58;;;12.18;;
31206;SDS011;17834;52.992;8.856;2024-01-30T06:53:56;28.05;;;14.23;;
31206;SDS011;17834;52.992;8.856;2024-01-30T06:56:21;22.98;;;11.98;;
31206;SDS011;17834;52.992;8.856;2024-01-30T06:58:48;24.42;;;13.25;;
31206;SDS011;17834;52.992;8.856;2024-01-30T07:01:14;23.20;;;12.55;;
31206;SDS011;17834;52.992;8.856;2024-01-30T07:03:40;29.20;;;13.82;;
31206;SDS011;17834;52.992;8.856;2024-01-30T07:06:05;24.27;;;12.32;;
31206;SDS011;17834;52.992;8.856;2024-01-30T07:08:31;26.00;;;13.68;;
31206;SDS011;17834;52.992;8.856;2024-01-30T07:10:56;29.67;;;13.88;;
31206;SDS011;17834;52.992;8.856;2024-01-30T07:13:22;21.58;;;11.68;;
31206;SDS011;17834;52.992;8.856;2024-01-30T07:15:47;28.33;;;12.23;;
31206;SDS011;17834;52.992;8.856;2024-01-30T07:18:13;27.98;;;14.25;;
31206;SDS011;17834;52.992;8.856;2024-01-30T07:20:38;28.83;;;13.70;;
31206;SDS011;17834;52.992;8.856;2024-01-30T07:23:10;28.55;;;12.48;;
31206;SDS011;17834;52.992;8.856;2024-01-30T07:25:41;25.42;;;13.25;;
31206;SDS011;17834;52.992;8.856;2024-01-30T07:28:07;25.48;;;14.10;;
31206;SDS011;17834;52.992;8.856;2024-01-30T07:30:37;33.13;;;14.45;;
31206;SDS011;17834;52.992;8.856;2024-01-30T07:33:03;23.95;;;12.95;;
31206;SDS011;17834;52.992;8.856;2024-01-30T07:35:28;24.45;;;12.43;;
31206;SDS011;17834;52.992;8.856;2024-01-30T07:37:54;24.17;;;12.90;;
31206;SDS011;17834;52.992;8.856;2024-01-30T07:40:19;23.65;;;12.00;;
31206;SDS011;17834;52.992;8.856;2024-01-30T07:42:45;27.02;;;13.52;;
31206;SDS011;17834;52.992;8.856;2024-01-30T07:45:10;29.65;;;13.82;;
31206;SDS011;17834;52.992;8.856;2024-01-30T07:47:36;30.20;;;14.50;;
31206;SDS011;17834;52.992;8.856;2024-01-30T07:50:01;24.95;;;12.23;;
31206;SDS011;17834;52.992;8.856;2024-01-30T07:52:27;26.50;;;12.23;;
31206;SDS011;17834;52.992;8.856;2024-01-30T07:54:53;29.00;;;12.98;;
31206;SDS011;17834;52.992;8.856;2024-01-30T07:57:18;26.65;;;12.40;;
31206;SDS011;17834;52.992;8.856;2024-01-30T07:59:44;26.80;;;13.77;;
31206;SDS011;17834;52.992;8.856;2024-01-30T08:02:11;22.50;;;10.93;;
31206;SDS011;17834;52.992;8.856;2024-01-30T08:04:37;30.77;;;13.15;;
31206;SDS011;17834;52.992;8.856;2024-01-30T08:07:03;30.77;;;13.32;;
31206;SDS011;17834;52.992;8.856;2024-01-30T08:09:28;27.58;;;13.82;;
31206;SDS011;17834;52.992;8.856;2024-01-30T08:11:54;28.27;;;13.35;;
31206;SDS011;17834;52.992;8.856;2024-01-30T08:14:20;28.67;;;15.25;;
31206;SDS011;17834;52.992;8.856;2024-01-30T08:16:45;28.10;;;12.85;;
31206;SDS011;17834;52.992;8.856;2024-01-30T08:19:11;29.60;;;13.02;;
31206;SDS011;17834;52.992;8.856;2024-01-30T08:21:36;27.17;;;12.98;;
31206;SDS011;17834;52.992;8.856;2024-01-30T08:24:03;37.22;;;13.55;;
31206;SDS011;17834;52.992;8.856;2024-01-30T08:26:29;22.92;;;13.05;;
31206;SDS011;17834;52.992;8.856;2024-01-30T08:28:55;25.25;;;12.85;;
31206;SDS011;17834;52.992;8.856;2024-01-30T08:31:20;26.55;;;13.30;;
31206;SDS011;17834;52.992;8.856;2024-01-30T08:33:46;29.15;;;12.75;;
31206;SDS011;17834;52.992;8.856;2024-01-30T08:36:11;27.45;;;11.70;;
31206;SDS011;17834;52.992;8.856;2024-01-30T08:38:37;26.35;;;12.85;;
31206;SDS011;17834;52.992;8.856;2024-01-30T08:41:02;24.15;;;13.52;;
31206;SDS011;17834;52.992;8.856;2024-01-30T08:43:28;23.88;;;12.75;;
31206;SDS011;17834;52.992;8.856;2024-01-30T08:45:53;31.20;;;12.65;;
31206;SDS011;17834;52.992;8.856;2024-01-30T08:48:19;25.95;;;13.82;;
31206;SDS011;17834;52.992;8.856;2024-01-30T08:50:44;20.75;;;12.07;;
31206;SDS011;17834;52.992;8.856;2024-01-30T08:53:10;27.50;;;12.52;;
31206;SDS011;17834;52.992;8.856;2024-01-30T08:55:35;24.50;;;12.02;;
31206;SDS011;17834;52.992;8.856;2024-01-30T08:58:01;23.88;;;11.40;;
31206;SDS011;17834;52.992;8.856;2024-01-30T09:00:28;24.08;;;11.73;;
31206;SDS011;17834;52.992;8.856;2024-01-30T09:02:54;22.48;;;11.75;;
31206;SDS011;17834;52.992;8.856;2024-01-30T09:05:19;21.42;;;10.80;;
31206;SDS011;17834;52.992;8.856;2024-01-30T09:07:45;27.27;;;12.75;;
31206;SDS011;17834;52.992;8.856;2024-01-30T09:10:10;24.77;;;11.95;;
31206;SDS011;17834;52.992;8.856;2024-01-30T09:12:36;23.73;;;11.52;;
31206;SDS011;17834;52.992;8.856;2024-01-30T09:15:02;22.90;;;12.20;;
31206;SDS011;17834;52.992;8.856;2024-01-30T09:17:28;25.23;;;11.55;;
31206;SDS011;17834;52.992;8.856;2024-01-30T09:19:53;23.60;;;11.35;;
31206;SDS011;17834;52.992;8.856;2024-01-30T09:22:19;22.52;;;11.27;;
31206;SDS011;17834;52.992;8.856;2024-01-30T09:24:44;20.65;;;10.35;;
31206;SDS011;17834;52.992;8.856;2024-01-30T09:27:10;21.60;;;10.77;;
31206;SDS011;17834;52.992;8.856;2024-01-30T09:29:35;20.58;;;9.32;;
31206;SDS011;17834;52.992;8.856;2024-01-30T09:32:01;21.50;;;11.85;;
31206;SDS011;17834;52.992;8.856;2024-01-30T09:34:26;24.58;;;11.10;;
31206;SDS011;17834;52.992;8.856;2024-01-30T09:36:52;19.70;;;10.65;;
31206;SDS011;17834;52.992;8.856;2024-01-30T09:39:17;20.65;;;9.90;;
31206;SDS011;17834;52.992;8.856;2024-01-30T09:44:30;18.70;;;9.95;;
31206;SDS011;17834;52.992;8.856;2024-01-30T09:46:56;20.17;;;10.00;;
31206;SDS011;17834;52.992;8.856;2024-01-30T09:49:28;21.90;;;10.32;;
31206;SDS011;17834;52.992;8.856;2024-01-30T09:51:56;20.27;;;9.70;;
31206;SDS011;17834;52.992;8.856;2024-01-30T09:54:22;17.38;;;9.45;;
31206;SDS011;17834;52.992;8.856;2024-01-30T09:56:48;15.38;;;9.10;;
31206;SDS011;17834;52.992;8.856;2024-01-30T09:59:14;16.45;;;10.25;;
31206;SDS011;17834;52.992;8.856;2024-01-30T10:01:40;21.02;;;9.93;;
31206;SDS011;17834;52.992;8.856;2024-01-30T10:04:05;19.83;;;9.57;;
31206;SDS011;17834;52.992;8.856;2024-01-30T10:06:32;16.67;;;8.55;;
31206;SDS011;17834;52.992;8.856;2024-01-30T10:08:58;17.02;;;8.65;;
31206;SDS011;17834;52.992;8.856;2024-01-30T10:11:23;17.67;;;9.20;;
31206;SDS011;17834;52.992;8.856;2024-01-30T10:13:49;15.27;;;8.77;;
31206;SDS011;17834;52.992;8.856;2024-01-30T10:16:14;16.65;;;9.13;;
31206;SDS011;17834;52.992;8.856;2024-01-30T10:18:41;16.73;;;8.27;;
31206;SDS011;17834;52.992;8.856;2024-01-30T10:21:07;15.40;;;7.93;;
31206;SDS011;17834;52.992;8.856;2024-01-30T10:23:33;15.98;;;8.40;;
31206;SDS011;17834;52.992;8.856;2024-01-30T10:25:59;15.02;;;7.47;;
31206;SDS011;17834;52.992;8.856;2024-01-30T10:28:26;11.25;;;6.35;;
31206;SDS011;17834;52.992;8.856;2024-01-30T10:30:58;15.75;;;7.15;;
31206;SDS011;17834;52.992;8.856;2024-01-30T10:33:28;15.73;;;7.60;;
31206;SDS011;17834;52.992;8.856;2024-01-30T10:36:03;14.73;;;8.38;;
31206;SDS011;17834;52.992;8.856;2024-01-30T10:38:30;16.50;;;8.73;;
31206;SDS011;17834;52.992;8.856;2024-01-30T10:40:57;14.38;;;7.40;;
31206;SDS011;17834;52.992;8.856;2024-01-30T10:43:24;15.88;;;6.97;;
31206;SDS011;17834;52.992;8.856;2024-01-30T10:46:03;14.50;;;7.57;;
31206;SDS011;17834;52.992;8.856;2024-01-30T10:48:43;17.55;;;7.43;;
31206;SDS011;17834;52.992;8.856;2024-01-30T10:51:11;13.15;;;6.93;;
31206;SDS011;17834;52.992;8.856;2024-01-30T10:53:38;15.82;;;7.40;;
31206;SDS011;17834;52.992;8.856;2024-01-30T10:56:04;14.38;;;7.00;;
31206;SDS011;17834;52.992;8.856;2024-01-30T10:58:30;12.25;;;7.22;;
31206;SDS011;17834;52.992;8.856;2024-01-30T11:00:56;15.82;;;7.40;;
31206;SDS011;17834;52.992;8.856;2024-01-30T11:03:22;16.98;;;8.10;;
31206;SDS011;17834;52.992;8.856;2024-01-30T11:05:52;16.55;;;7.68;;
31206;SDS011;17834;52.992;8.856;2024-01-30T11:08:24;17.48;;;7.68;;
31206;SDS011;17834;52.992;8.856;2024-01-30T11:10:54;13.77;;;7.07;;
31206;SDS011;17834;52.992;8.856;2024-01-30T11:13:20;20.48;;;7.75;;
31206;SDS011;17834;52.992;8.856;2024-01-30T11:15:47;11.63;;;6.53;;
31206;SDS011;17834;52.992;8.856;2024-01-30T11:18:22;9.65;;;6.10;;
31206;SDS011;17834;52.992;8.856;2024-01-30T11:20:49;12.05;;;6.32;;
31206;SDS011;17834;52.992;8.856;2024-01-30T11:23:14;15.55;;;6.82;;
31206;SDS011;17834;52.992;8.856;2024-01-30T11:25:40;33.85;;;12.15;;
31206;SDS011;17834;52.992;8.856;2024-01-30T11:28:12;12.60;;;6.82;;
31206;SDS011;17834;52.992;8.856;2024-01-30T11:30:41;12.85;;;7.35;;
31206;SDS011;17834;52.992;8.856;2024-01-30T11:33:08;13.18;;;7.22;;
31206;SDS011;17834;52.992;8.856;2024-01-30T11:35:36;13.65;;;7.45;;
31206;SDS011;17834;52.992;8.856;2024-01-30T11:38:04;13.80;;;7.63;;
31206;SDS011;17834;52.992;8.856;2024-01-30T11:40:31;12.68;;;7.05;;
31206;SDS011;17834;52.992;8.856;2024-01-30T11:42:58;12.38;;;6.95;;
31206;SDS011;17834;52.992;8.856;2024-01-30T11:45:25;13.75;;;7.20;;
31206;SDS011;17834;52.992;8.856;2024-01-30T11:47:52;14.18;;;6.50;;
31206;SDS011;17834;52.992;8.856;2024-01-30T11:50:18;11.15;;;6.57;;
31206;SDS011;17834;52.992;8.856;2024-01-30T11:52:43;12.90;;;7.70;;
31206;SDS011;17834;52.992;8.856;2024-01-30T11:55:09;20.85;;;8.73;;
31206;SDS011;17834;52.992;8.856;2024-01-30T11:57:35;14.70;;;7.50;;
31206;SDS011;17834;52.992;8.856;2024-01-30T12:00:02;17.15;;;8.15;;
31206;SDS011;17834;52.992;8.856;2024-01-30T12:02:34;12.10;;;6.55;;
31206;SDS011;17834;52.992;8.856;2024-01-30T12:05:04;12.65;;;6.95;;
31206;SDS011;17834;52.992;8.856;2024-01-30T12:07:30;12.95;;;7.40;;
31206;SDS011;17834;52.992;8.856;2024-01-30T12:09:56;15.98;;;8.77;;
31206;SDS011;17834;52.992;8.856;2024-01-30T12:12:25;14.45;;;7.47;;
31206;SDS011;17834;52.992;8.856;2024-01-30T12:14:51;12.60;;;6.93;;
31206;SDS011;17834;52.992;8.856;2024-01-30T12:17:27;12.20;;;6.82;;
31206;SDS011;17834;52.992;8.856;2024-01-30T12:20:04;10.02;;;6.32;;
31206;SDS011;17834;52.992;8.856;2024-01-30T12:22:40;14.73;;;7.28;;
31206;SDS011;17834;52.992;8.856;2024-01-30T12:25:13;13.80;;;6.28;;
31206;SDS011;17834;52.992;8.856;2024-01-30T12:27:41;13.75;;;6.88;;
31206;SDS011;17834;52.992;8.856;2024-01-30T12:30:08;13.00;;;6.63;;
31206;SDS011;17834;52.992;8.856;2024-01-30T12:32:42;13.20;;;7.10;;
31206;SDS011;17834;52.992;8.856;2024-01-30T12:35:12;11.80;;;6.45;;
31206;SDS011;17834;52.992;8.856;2024-01-30T12:37:39;11.93;;;6.07;;
31206;SDS011;17834;52.992;8.856;2024-01-30T12:40:05;12.82;;;6.53;;
31206;SDS011;17834;52.992;8.856;2024-01-30T12:42:32;14.88;;;6.75;;
31206;SDS011;17834;52.992;8.856;2024-01-30T12:44:58;11.43;;;6.70;;
31206;SDS011;17834;52.992;8.856;2024-01-30T12:47:24;16.40;;;7.15;;
31206;SDS011;17834;52.992;8.856;2024-01-30T12:49:49;12.10;;;6.78;;
31206;SDS011;17834;52.992;8.856;2024-01-30T12:52:18;16.13;;;6.93;;
31206;SDS011;17834;52.992;8.856;2024-01-30T12:54:44;12.38;;;6.68;;
31206;SDS011;17834;52.992;8.856;2024-01-30T12:57:10;10.13;;;5.57;;
31206;SDS011;17834;52.992;8.856;2024-01-30T12:59:35;12.13;;;5.32;;
31206;SDS011;17834;52.992;8.856;2024-01-30T13:02:01;13.98;;;6.05;;
31206;SDS011;17834;52.992;8.856;2024-01-30T13:04:28;10.57;;;5.90;;
31206;SDS011;17834;52.992;8.856;2024-01-30T13:06:54;12.48;;;6.78;;
31206;SDS011;17834;52.992;8.856;2024-01-30T13:09:19;10.93;;;6.00;;
31206;SDS011;17834;52.992;8.856;2024-01-30T13:11:45;12.05;;;6.88;;
31206;SDS011;17834;52.992;8.856;2024-01-30T13:14:11;11.80;;;6.88;;
31206;SDS011;17834;52.992;8.856;2024-01-30T13:16:36;14.70;;;6.38;;
31206;SDS011;17834;52.992;8.856;2024-01-30T13:19:02;15.35;;;6.85;;
31206;SDS011;17834;52.992;8.856;2024-01-30T13:21:29;11.23;;;6.65;;
31206;SDS011;17834;52.992;8.856;2024-01-30T13:23:54;12.63;;;6.43;;
31206;SDS011;17834;52.992;8.856;2024-01-30T13:26:20;12.13;;;6.72;;
31206;SDS011;17834;52.992;8.856;2024-01-30T13:28:46;12.15;;;6.28;;
31206;SDS011;17834;52.992;8.856;2024-01-30T13:31:12;12.27;;;6.53;;
31206;SDS011;17834;52.992;8.856;2024-01-30T13:33:38;15.93;;;6.65;;
31206;SDS011;17834;52.992;8.856;2024-01-30T13:36:04;12.38;;;6.13;;
31206;SDS011;17834;52.992;8.856;2024-01-30T13:38:30;12.00;;;6.63;;
31206;SDS011;17834;52.992;8.856;2024-01-30T13:40:55;14.55;;;7.10;;
31206;SDS011;17834;52.992;8.856;2024-01-30T13:43:21;15.88;;;6.97;;
31206;SDS011;17834;52.992;8.856;2024-01-30T13:45:47;14.05;;;6.22;;
31206;SDS011;17834;52.992;8.856;2024-01-30T13:48:12;16.00;;;6.78;;
31206;SDS011;17834;52.992;8.856;2024-01-30T13:50:38;16.55;;;6.55;;
31206;SDS011;17834;52.992;8.856;2024-01-30T13:53:03;13.45;;;6.03;;
31206;SDS011;17834;52.992;8.856;2024-01-30T13:55:32;12.50;;;6.88;;
31206;SDS011;17834;52.992;8.856;2024-01-30T13:57:57;17.35;;;6.90;;
31206;SDS011;17834;52.992;8.856;2024-01-30T14:00:23;13.07;;;6.78;;
31206;SDS011;17834;52.992;8.856;2024-01-30T14:02:50;14.77;;;6.82;;
31206;SDS011;17834;52.992;8.856;2024-01-30T14:05:15;16.08;;;8.00;;
31206;SDS011;17834;52.992;8.856;2024-01-30T14:07:42;12.75;;;6.70;;
31206;SDS011;17834;52.992;8.856;2024-01-30T14:10:09;13.90;;;6.90;;
31206;SDS011;17834;52.992;8.856;2024-01-30T14:12:36;14.32;;;6.93;;
31206;SDS011;17834;52.992;8.856;2024-01-30T14:15:01;16.30;;;7.63;;
31206;SDS011;17834;52.992;8.856;2024-01-30T14:17:27;15.60;;;7.53;;
31206;SDS011;17834;52.992;8.856;2024-01-30T14:19:52;15.45;;;6.60;;
31206;SDS011;17834;52.992;8.856;2024-01-30T14:22:18;17.10;;;7.10;;
31206;SDS011;17834;52.992;8.856;2024-01-30T14:24:44;14.52;;;6.65;;